Time;durP1;ratioP1;P1;durP2;ratioP2;P2;SDS_P1;SDS_P2;PMS_P1;PMS_P2;Temp;Humidity;BMP_temperature;BMP_pressure;BME280_temperature;BME280_humidity;BME280_pressure;Samples;Min_cycle;Max_cycle;Signal;HPM_P1;HPM_P2
2021/03/03 00:03:41;;;;;;;252.17;106.67;;;;;;;-0.32;76.51;100623.23;3996437;88;21252;-87
2021/03/03 00:09:43;;;;;;;337.07;130.27;;;;;;;-0.37;76.49;100616.48;4012125;88;21395;-85
2021/03/03 00:15:45;;;;;;;209.70;86.73;;;;;;;-0.67;76.86;100623.08;4002751;88;21406;-86
2021/03/03 00:21:46;;;;;;;223.30;94.77;;;;;;;-0.49;77.49;100628.02;4016715;88;21811;-85
2021/03/03 00:27:48;;;;;;;213.47;88.47;;;;;;;-0.40;77.22;100610.29;4024707;88;21914;-85
2021/03/03 00:33:50;;;;;;;219.17;89.33;;;;;;;-0.36;77.27;100612.74;4039894;88;21791;-86
2021/03/03 00:39:52;;;;;;;321.47;111.47;;;;;;;-0.33;77.04;100598.76;4036569;88;21946;-85
2021/03/03 00:45:53;;;;;;;289.43;107.50;;;;;;;-0.50;76.19;100596.82;4017104;88;21354;-85
2021/03/03 00:51:55;;;;;;;254.87;95.97;;;;;;;-0.74;76.61;100597.80;4067364;85;21240;-86
2021/03/03 00:57:56;;;;;;;273.33;100.77;;;;;;;-0.79;77.06;100597.77;4069455;85;21249;-85
2021/03/03 01:03:58;;;;;;;289.27;104.83;;;;;;;-0.77;77.02;100594.30;4050226;85;21786;-86
2021/03/03 01:10:03;;;;;;;277.13;98.47;;;;;;;-0.84;76.98;100594.23;4039324;86;21304;-84
2021/03/03 01:16:06;;;;;;;283.17;100.67;;;;;;;-0.87;77.30;100584.00;4040618;88;21189;-84
2021/03/03 01:22:08;;;;;;;278.57;99.47;;;;;;;-0.94;77.08;100589.61;4064776;85;21734;-85
2021/03/03 01:28:10;;;;;;;274.00;96.13;;;;;;;-1.17;76.75;100579.80;4056903;85;21412;-86
2021/03/03 01:34:12;;;;;;;280.63;99.20;;;;;;;-1.32;77.36;100577.85;4063206;85;21246;-86
2021/03/03 01:40:15;;;;;;;243.73;87.87;;;;;;;-1.25;77.52;100570.91;4066171;85;21253;-86
2021/03/03 01:46:16;;;;;;;245.93;87.70;;;;;;;-1.23;77.88;100571.44;4071802;85;21726;-85
2021/03/03 01:52:19;;;;;;;245.43;88.13;;;;;;;-1.20;77.82;100568.23;4044216;85;21727;-84
2021/03/03 01:58:21;;;;;;;215.87;77.07;;;;;;;-1.25;77.86;100564.20;4063569;85;21244;-85
2021/03/03 02:04:25;;;;;;;274.80;91.70;;;;;;;-1.21;78.15;100562.59;4068721;85;21248;-85
2021/03/03 02:10:46;;;;;;;235.47;84.27;;;;;;;-1.46;77.17;100555.72;4066275;85;21244;-85
2021/03/03 02:16:50;;;;;;;261.63;88.63;;;;;;;-1.63;77.58;100554.55;4054779;85;21226;-85
2021/03/03 02:23:20;;;;;;;234.57;85.13;;;;;;;-1.57;78.25;100543.55;3977110;87;21722;-87
2021/03/03 02:29:30;;;;;;;211.57;83.13;;;;;;;-1.51;77.67;100537.70;4072627;85;21382;-85
2021/03/03 02:35:33;;;;;;;226.83;79.00;;;;;;;-1.63;77.97;100533.06;4069434;85;21669;-86
2021/03/03 02:41:36;;;;;;;193.27;76.63;;;;;;;-1.56;78.13;100530.95;4091504;85;21262;-85
2021/03/03 02:47:38;;;;;;;187.70;75.53;;;;;;;-1.74;77.87;100527.34;4082620;85;22149;-84
2021/03/03 02:53:41;;;;;;;180.40;70.53;;;;;;;-1.83;77.90;100514.09;4066726;86;21252;-84
2021/03/03 02:59:51;;;;;;;190.43;70.87;;;;;;;-1.95;77.92;100525.03;4049307;86;21867;-85
2021/03/03 03:06:08;;;;;;;190.53;74.23;;;;;;;-1.93;78.40;100519.41;4055922;86;21338;-84
2021/03/03 03:12:11;;;;;;;183.60;70.40;;;;;;;-1.83;78.69;100516.78;4050803;86;21253;-84
2021/03/03 03:18:20;;;;;;;174.97;66.73;;;;;;;-1.91;77.91;100521.31;4048888;86;21692;-84
2021/03/03 03:24:24;;;;;;;173.17;68.63;;;;;;;-2.14;77.98;100514.92;4038115;86;21383;-85
2021/03/03 03:30:29;;;;;;;148.17;58.73;;;;;;;-2.23;78.34;100509.75;4020997;86;21739;-84
2021/03/03 03:36:31;;;;;;;149.43;62.93;;;;;;;-2.28;78.64;100507.02;4049990;86;21256;-86
2021/03/03 03:42:35;;;;;;;148.60;60.63;;;;;;;-2.25;78.64;100500.63;4056800;86;21213;-83
2021/03/03 03:48:37;;;;;;;159.70;62.90;;;;;;;-2.41;78.37;100490.02;4073165;84;29152;-83
2021/03/03 03:54:38;;;;;;;162.63;64.37;;;;;;;-2.42;78.85;100491.88;4151018;84;21237;-83
2021/03/03 04:00:40;;;;;;;151.97;61.43;;;;;;;-2.33;79.08;100494.90;4222874;83;21721;-83
2021/03/03 04:06:42;;;;;;;146.13;56.13;;;;;;;-2.42;78.78;100491.88;4226452;83;21808;-83
2021/03/03 04:12:44;;;;;;;144.53;56.10;;;;;;;-2.34;79.29;100490.61;4230333;83;21208;-83
2021/03/03 04:18:45;;;;;;;150.63;63.23;;;;;;;-2.31;79.11;100483.39;4225080;83;21272;-83
2021/03/03 04:24:47;;;;;;;153.57;60.57;;;;;;;-2.47;78.62;100480.28;4227337;83;21190;-82
2021/03/03 04:30:49;;;;;;;150.90;61.00;;;;;;;-2.62;78.74;100473.45;4232598;83;21217;-82
2021/03/03 04:36:51;;;;;;;152.87;57.77;;;;;;;-2.64;78.99;100471.02;4228179;83;21776;-83
2021/03/03 04:42:52;;;;;;;142.33;55.20;;;;;;;-2.56;79.37;100469.23;4229917;83;21186;-83
2021/03/03 04:48:54;;;;;;;139.27;55.07;;;;;;;-2.61;78.81;100476.39;4227429;83;21213;-83
2021/03/03 04:54:55;;;;;;;140.83;56.80;;;;;;;-2.63;79.27;100464.59;4156210;84;21257;-84
2021/03/03 05:00:57;;;;;;;123.57;53.57;;;;;;;-2.61;79.38;100461.13;4242217;83;21592;-81
2021/03/03 05:06:58;;;;;;;128.20;51.47;;;;;;;-2.70;78.98;100457.81;4156590;84;21193;-82
2021/03/03 05:13:00;;;;;;;132.70;54.20;;;;;;;-2.81;79.05;100460.12;4163710;84;21387;-82
2021/03/03 05:19:02;;;;;;;137.00;54.60;;;;;;;-2.75;79.53;100455.08;4266327;81;21685;-83
2021/03/03 05:25:05;;;;;;;132.00;52.10;;;;;;;-2.77;79.17;100455.89;4266499;81;21809;-85
2021/03/03 05:31:07;;;;;;;122.80;49.87;;;;;;;-2.83;79.39;100446.97;4254014;81;24766;-83
2021/03/03 05:37:08;;;;;;;119.77;48.13;;;;;;;-2.73;79.83;100442.24;4226343;83;21159;-83
2021/03/03 05:43:10;;;;;;;121.67;50.63;;;;;;;-2.63;79.85;100441.80;4228467;83;21785;-82
2021/03/03 05:49:17;;;;;;;116.13;52.10;;;;;;;-2.64;79.35;100442.88;4227196;83;21664;-83
2021/03/03 05:55:19;;;;;;;119.77;50.40;;;;;;;-2.66;80.01;100447.67;4245119;83;21776;-83
2021/03/03 06:01:22;;;;;;;115.77;49.73;;;;;;;-2.47;80.21;100451.61;4236163;83;21993;-83
2021/03/03 06:07:24;;;;;;;121.43;50.30;;;;;;;-2.30;80.15;100448.82;4236333;83;21682;-83
2021/03/03 06:13:26;;;;;;;118.00;51.03;;;;;;;-2.07;80.50;100445.77;4232333;83;21772;-83
2021/03/03 06:19:28;;;;;;;128.50;53.23;;;;;;;-1.83;80.63;100453.18;4244430;83;21149;-83
2021/03/03 06:25:30;;;;;;;121.67;52.17;;;;;;;-1.43;81.06;100447.23;4219474;83;21309;-83
2021/03/03 06:31:37;;;;;;;123.63;53.90;;;;;;;-0.73;81.68;100442.09;4096432;86;21384;-84
2021/03/03 06:37:55;;;;;;;131.00;55.57;;;;;;;-0.07;81.30;100441.07;4243607;83;21158;-83
2021/03/03 06:43:58;;;;;;;120.30;52.93;;;;;;;0.65;80.97;100425.82;4239252;83;21173;-83
2021/03/03 06:50:12;;;;;;;121.35;53.70;;;;;;;1.34;80.45;100431.13;4195633;83;21711;-83
2021/03/03 06:56:13;;;;;;;123.95;55.92;;;;;;;1.92;79.77;100442.83;4126335;85;21707;-84
2021/03/03 07:02:15;;;;;;;123.55;56.73;;;;;;;2.27;78.42;100416.84;4133311;85;22170;-85
2021/03/03 07:08:18;;;;;;;122.50;57.73;;;;;;;2.27;78.42;100416.84;4126251;85;21239;-84
2021/03/03 07:14:22;;;;;;;115.00;51.80;;;;;;;2.67;78.01;100421.80;4130374;85;21224;-84
2021/03/03 07:20:24;;;;;;;108.72;47.85;;;;;;;;;;4108167;84;2001712;-83
2021/03/03 07:26:26;;;;;;;80.30;41.35;;;;;;;3.11;77.61;100427.19;4150682;84;21216;-85
2021/03/03 07:32:28;;;;;;;78.83;37.20;;;;;;;3.39;77.58;100405.12;4144677;84;21453;-84
2021/03/03 07:38:34;;;;;;;79.00;39.05;;;;;;;3.80;77.63;100411.52;4144498;84;21775;-85
2021/03/03 07:44:41;;;;;;;70.65;36.15;;;;;;;4.34;77.60;100407.56;4142445;84;21651;-85
2021/03/03 07:50:43;;;;;;;67.20;33.48;;;;;;;4.97;77.17;100407.65;4148765;84;21209;-85
2021/03/03 07:56:45;;;;;;;67.47;32.55;;;;;;;5.64;76.79;100405.84;4135554;84;21254;-86
2021/03/03 08:02:50;;;;;;;63.00;28.57;;;;;;;6.29;75.71;100405.59;4123349;84;21221;-85
2021/03/03 08:09:10;;;;;;;54.95;28.07;;;;;;;7.06;75.24;100401.77;4080725;85;21393;-86
2021/03/03 08:15:36;;;;;;;56.48;28.62;;;;;;;7.46;73.62;100390.43;4053982;86;21246;-87
2021/03/03 08:21:43;;;;;;;54.95;28.67;;;;;;;8.07;73.56;100384.33;4071522;85;21171;-88
2021/03/03 08:27:45;;;;;;;62.53;33.55;;;;;;;8.81;72.97;100383.60;4007742;88;21261;-88
2021/03/03 08:33:53;;;;;;;62.45;32.42;;;;;;;9.32;71.66;100366.05;4126544;84;21216;-88
2021/03/03 08:39:55;;;;;;;62.48;32.10;;;;;;;9.78;70.47;100365.02;4129238;84;21184;-89
2021/03/03 08:45:57;;;;;;;83.42;40.20;;;;;;;10.34;69.62;100364.27;4120548;84;21648;-89
2021/03/03 08:52:11;;;;;;;88.40;46.37;;;;;;;10.93;69.71;100368.96;4049073;84;1849420;-89
2021/03/03 08:58:39;;;;;;;106.72;55.12;;;;;;;11.90;68.47;100356.38;4104704;85;21699;-88
2021/03/03 09:04:55;;;;;;;94.83;54.45;;;;;;;12.01;68.08;100360.20;4091490;85;21254;-88
2021/03/03 09:10:57;;;;;;;100.73;53.70;;;;;;;13.17;68.16;100344.64;4101682;85;21259;-88
2021/03/03 09:17:06;;;;;;;91.42;51.92;;;;;;;14.25;66.90;100337.59;4092976;85;21202;-87
2021/03/03 09:23:07;;;;;;;66.87;39.08;;;;;;;15.11;65.94;100332.47;4111271;85;21218;-87
2021/03/03 09:29:31;;;;;;;68.62;40.78;;;;;;;15.89;63.45;100330.11;4056296;86;21725;-89
2021/03/03 09:35:33;;;;;;;69.85;38.88;;;;;;;16.48;62.40;100322.44;4054496;86;21231;-88
2021/03/03 09:41:35;;;;;;;55.30;33.25;;;;;;;16.73;61.12;100314.33;4098207;85;21227;-89
2021/03/03 09:47:40;;;;;;;46.53;27.15;;;;;;;17.21;60.66;100316.61;4099439;85;21392;-88
2021/03/03 09:53:53;;;;;;;44.65;25.88;;;;;;;17.66;57.74;100313.08;4059636;85;21391;-88
2021/03/03 09:59:59;;;;;;;40.55;24.75;;;;;;;18.09;57.11;100305.86;4112821;85;21254;-89
2021/03/03 10:06:00;;;;;;;29.65;17.62;;;;;;;18.07;56.05;100302.69;4102281;85;21828;-89
2021/03/03 10:12:15;;;;;;;27.77;16.87;;;;;;;18.83;55.57;100298.16;4117096;85;21218;-88
2021/03/03 10:18:21;;;;;;;20.37;12.58;;;;;;;19.27;53.06;100291.52;4126504;85;21207;-90
2021/03/03 10:24:26;;;;;;;22.33;13.47;;;;;;;19.44;52.64;100281.77;4026975;87;21221;-88
2021/03/03 10:30:33;;;;;;;13.98;9.78;;;;;;;19.84;50.82;100277.59;4117039;85;21479;-88
2021/03/03 10:36:40;;;;;;;12.40;7.90;;;;;;;20.26;50.06;100269.59;4100253;85;21222;-90
2021/03/03 10:42:47;;;;;;;16.20;9.40;;;;;;;20.84;48.71;100256.94;4108571;85;21663;-89
2021/03/03 10:48:56;;;;;;;20.25;11.73;;;;;;;20.57;46.52;100244.28;4108009;85;21190;-88
2021/03/03 10:54:58;;;;;;;15.93;9.85;;;;;;;20.76;46.79;100240.92;4064874;86;21198;-88
2021/03/03 11:01:04;;;;;;;18.67;10.88;;;;;;;20.93;45.87;100227.41;4056776;86;21426;-89
2021/03/03 11:07:06;;;;;;;17.70;10.53;;;;;;;21.04;45.07;100210.02;4062694;86;21229;-89
2021/03/03 11:13:09;;;;;;;14.03;8.90;;;;;;;20.51;43.06;100202.81;4063078;86;21219;-89
2021/03/03 11:19:10;;;;;;;13.22;8.33;;;;;;;20.34;43.11;100187.69;3965809;88;21385;-88
2021/03/03 11:25:13;;;;;;;13.30;8.63;;;;;;;20.74;42.38;100182.09;3964253;88;21239;-87
2021/03/03 11:31:15;;;;;;;8.15;5.72;;;;;;;20.58;38.86;100173.52;4004393;87;21837;-87
2021/03/03 11:37:17;;;;;;;11.33;4.62;;;;;;;20.97;38.42;100161.38;4047818;87;21262;-90
2021/03/03 11:43:19;;;;;;;6.42;3.70;;;;;;;21.23;37.06;100150.11;3966871;88;21863;-87
2021/03/03 11:49:20;;;;;;;6.65;3.45;;;;;;;21.12;35.39;100142.50;4065481;85;21659;-88
2021/03/03 11:55:22;;;;;;;8.15;3.50;;;;;;;20.81;33.43;100135.31;4088096;85;21207;-87
2021/03/03 12:01:24;;;;;;;6.12;3.27;;;;;;;20.24;34.56;100130.98;4093952;85;21219;-87
2021/03/03 12:07:26;;;;;;;5.40;3.22;;;;;;;19.85;33.94;100118.02;4092739;85;21757;-92
2021/03/03 12:13:27;;;;;;;3.10;1.75;;;;;;;19.87;33.66;100106.66;4104470;85;21251;-89
2021/03/03 12:19:29;;;;;;;3.70;1.72;;;;;;;19.29;31.33;100092.06;4098803;85;21380;-90
2021/03/03 12:25:31;;;;;;;4.70;2.25;;;;;;;19.02;32.46;100077.13;4090577;85;22127;-91
2021/03/03 12:31:34;;;;;;;4.95;2.22;;;;;;;18.91;31.69;100063.32;4097955;85;21333;-90
2021/03/03 12:37:35;;;;;;;5.22;2.20;;;;;;;18.64;30.10;100060.87;4135334;84;21226;-90
2021/03/03 12:43:37;;;;;;;5.85;2.45;;;;;;;18.44;31.19;100051.45;4141645;83;21717;-90
2021/03/03 12:49:40;;;;;;;3.45;2.27;;;;;;;18.15;30.60;100036.09;4136582;84;21167;-90
2021/03/03 12:55:41;;;;;;;6.80;2.58;;;;;;;17.96;30.15;100026.22;4122264;84;21218;-89
2021/03/03 13:01:43;;;;;;;4.78;2.75;;;;;;;17.65;30.57;100018.77;4114821;85;21206;-89
2021/03/03 13:07:45;;;;;;;7.95;2.92;;;;;;;17.58;30.09;100004.95;4118256;83;21384;-90
2021/03/03 13:13:47;;;;;;;6.37;3.85;;;;;;;17.43;30.27;99997.02;4098960;85;21665;-90
2021/03/03 13:19:49;;;;;;;5.80;3.22;;;;;;;17.18;30.60;99977.64;4098565;85;21242;-90
2021/03/03 13:25:50;;;;;;;6.70;3.83;;;;;;;17.16;30.59;99979.41;4109474;85;21360;-90
2021/03/03 13:31:57;;;;;;;8.23;3.80;;;;;;;17.16;29.97;99964.81;4061653;85;21206;-92
2021/03/03 13:37:56;;;;;;;10.05;4.62;;;;;;;17.16;30.61;99960.05;4062054;85;21642;-90
2021/03/03 13:43:58;;;;;;;9.78;4.70;;;;;;;17.16;29.21;99948.98;4109050;85;21368;-86
2021/03/03 13:50:00;;;;;;;9.88;5.35;;;;;;;16.96;30.26;99940.88;4116629;83;21207;-88
2021/03/03 13:56:01;;;;;;;6.50;4.40;;;;;;;17.02;30.38;99933.00;4088886;85;21356;-88
2021/03/03 14:02:04;;;;;;;7.72;4.50;;;;;;;16.99;30.45;99925.50;4092001;85;21239;-88
2021/03/03 14:08:05;;;;;;;10.63;5.55;;;;;;;16.94;30.56;99913.44;4099192;85;21207;-88
2021/03/03 14:14:07;;;;;;;11.38;5.70;;;;;;;17.01;30.50;99905.92;4079793;85;21559;-88
2021/03/03 14:20:10;;;;;;;13.53;6.80;;;;;;;16.99;30.71;99888.16;4091442;85;21408;-87
2021/03/03 14:26:13;;;;;;;14.18;6.25;;;;;;;16.96;29.77;99877.27;4104379;84;21239;-89
2021/03/03 14:32:15;;;;;;;14.50;6.45;;;;;;;16.78;30.55;99872.36;4090867;85;21518;-88
2021/03/03 14:38:22;;;;;;;12.40;7.15;;;;;;;16.82;30.75;99857.92;4098190;85;21674;-88
2021/03/03 14:44:20;;;;;;;12.25;6.47;;;;;;;16.73;29.14;99853.39;4094339;85;21215;-88
2021/03/03 14:50:22;;;;;;;15.80;7.17;;;;;;;16.71;30.13;99833.63;4095047;85;21252;-88
2021/03/03 14:56:24;;;;;;;12.70;6.50;;;;;;;16.65;29.96;99822.78;4102123;85;21200;-88
2021/03/03 15:02:25;;;;;;;19.37;8.30;;;;;;;16.49;30.16;99820.22;4061284;86;21226;-88
2021/03/03 15:14:44;;;;;;;15.35;8.38;;;;;;;16.04;30.26;99805.70;4446771;77;23220;-87
2021/03/03 15:20:46;;;;;;;15.30;7.83;;;;;;;15.68;30.78;99797.16;4356812;80;21202;-88
2021/03/03 15:26:48;;;;;;;15.10;8.10;;;;;;;15.42;30.84;99788.00;4350968;80;21233;-88
2021/03/03 15:32:49;;;;;;;18.35;10.10;;;;;;;15.22;30.91;99783.14;4356978;80;21182;-87
2021/03/03 15:38:51;;;;;;;19.65;10.48;;;;;;;14.86;31.38;99777.99;4356776;80;21213;-89
2021/03/03 15:44:53;;;;;;;22.90;10.50;;;;;;;14.62;31.73;99780.02;4347214;80;21788;-89
2021/03/03 15:50:55;;;;;;;21.77;11.45;;;;;;;14.34;32.04;99777.04;4352317;80;21232;-88
2021/03/03 15:56:56;;;;;;;22.60;11.53;;;;;;;14.05;32.20;99776.53;4349212;80;21694;-87
2021/03/03 16:02:58;;;;;;;27.17;11.68;;;;;;;13.73;32.35;99775.43;4165658;81;36478;-87
2021/03/03 16:09:00;;;;;;;31.20;12.68;;;;;;;13.46;32.73;99776.11;4159759;79;29346;-87
2021/03/03 16:15:01;;;;;;;28.95;12.73;;;;;;;13.13;33.06;99773.91;4155725;84;21228;-87
2021/03/03 16:21:03;;;;;;;30.40;12.43;;;;;;;12.74;33.75;99766.48;4165969;84;21394;-87
2021/03/03 16:27:07;;;;;;;32.00;13.00;;;;;;;12.35;34.48;99766.46;4165525;84;21883;-87
2021/03/03 16:33:08;;;;;;;30.85;13.08;;;;;;;11.84;34.91;99767.94;4148248;84;22247;-87
2021/03/03 16:39:10;;;;;;;35.98;17.42;;;;;;;11.46;35.49;99770.13;4161989;84;21232;-88
2021/03/03 16:45:14;;;;;;;43.23;18.57;;;;;;;11.18;36.13;99764.64;4160814;84;21361;-88
2021/03/03 16:51:16;;;;;;;50.55;21.77;;;;;;;10.97;36.66;99765.78;4164005;84;21686;-86
2021/03/03 16:57:18;;;;;;;64.67;29.30;;;;;;;10.73;37.17;99770.69;4165542;84;21228;-87
2021/03/03 17:03:20;;;;;;;68.62;29.92;;;;;;;10.42;37.73;99769.38;4162395;84;21172;-87
2021/03/03 17:09:21;;;;;;;62.43;28.07;;;;;;;10.13;38.26;99760.27;4130241;84;2044160;-86
2021/03/03 17:15:23;;;;;;;88.72;43.68;;;;;;;9.91;38.75;99755.38;4206462;83;21205;-88
2021/03/03 17:21:26;;;;;;;68.85;30.32;;;;;;;9.73;39.48;99756.28;4205776;83;21190;-86
2021/03/03 17:27:28;;;;;;;103.45;47.95;;;;;;;9.51;39.75;99752.75;4186988;83;21955;-89
2021/03/03 17:33:30;;;;;;;126.45;56.68;;;;;;;9.18;40.76;99754.94;4209423;83;21179;-86
2021/03/03 17:39:31;;;;;;;116.42;49.95;;;;;;;8.73;41.24;99748.38;4200942;83;21191;-86
2021/03/03 17:45:33;;;;;;;112.15;49.27;;;;;;;8.38;42.25;99748.63;4199533;83;21719;-87
2021/03/03 17:51:35;;;;;;;104.65;41.55;;;;;;;8.07;42.75;99736.66;4196938;83;21188;-87
2021/03/03 17:57:36;;;;;;;93.37;39.60;;;;;;;7.74;43.53;99740.83;4203874;83;21714;-86
2021/03/03 18:03:38;;;;;;;95.97;42.17;;;;;;;7.54;44.46;99737.06;4200507;83;21664;-88
2021/03/03 18:09:39;;;;;;;90.62;41.18;;;;;;;7.27;44.67;99729.47;4193936;83;21212;-87
2021/03/03 18:15:42;;;;;;;88.40;39.50;;;;;;;7.12;46.76;99722.50;4053218;83;10000458;-87
2021/03/03 18:21:44;;;;;;;88.35;38.70;;;;;;;6.87;46.75;99722.95;4156466;83;21804;-87
2021/03/03 18:27:46;;;;;;;98.05;42.30;;;;;;;6.64;47.90;99715.46;4157335;83;21824;-87
2021/03/03 18:33:48;;;;;;;101.40;45.30;;;;;;;6.52;47.91;99706.66;4162979;83;21220;-86
2021/03/03 18:39:50;;;;;;;96.72;41.18;;;;;;;6.24;47.76;99702.28;4173642;83;21383;-87
2021/03/03 18:45:55;;;;;;;96.28;40.48;;;;;;;5.77;49.42;99707.53;4180310;83;21369;-87
2021/03/03 18:51:55;;;;;;;93.50;38.10;;;;;;;5.64;48.59;99704.45;4168025;83;21238;-86
2021/03/03 18:57:56;;;;;;;109.75;46.63;;;;;;;5.48;51.21;99702.02;4183206;83;21223;-88
2021/03/03 19:03:58;;;;;;;123.10;51.40;;;;;;;5.32;50.64;99688.75;4157131;83;21173;-87
2021/03/03 19:10:00;;;;;;;108.87;47.98;;;;;;;5.20;51.41;99694.61;4170009;83;21720;-88
2021/03/03 19:16:02;;;;;;;134.47;55.15;;;;;;;5.00;51.52;99683.85;4186586;83;21758;-87
2021/03/03 19:22:05;;;;;;;128.10;55.78;;;;;;;4.77;52.26;99672.41;4170033;83;21214;-86
2021/03/03 19:28:06;;;;;;;118.35;48.80;;;;;;;4.52;52.72;99673.75;4186004;83;21645;-85
2021/03/03 19:34:08;;;;;;;148.15;60.05;;;;;;;4.40;53.29;99675.73;4176658;83;21201;-86
2021/03/03 19:40:11;;;;;;;121.50;49.55;;;;;;;4.35;53.22;99674.52;4179844;83;21812;-86
2021/03/03 19:46:12;;;;;;;144.77;61.00;;;;;;;4.32;54.61;99669.73;4179901;83;21776;-86
2021/03/03 19:52:14;;;;;;;155.72;64.20;;;;;;;4.34;54.67;99662.64;4179124;83;21262;-85
2021/03/03 19:58:16;;;;;;;128.10;56.98;;;;;;;4.40;55.11;99658.69;4157369;83;21339;-87
2021/03/03 20:04:18;;;;;;;136.45;59.58;;;;;;;4.52;55.47;99652.06;4159464;83;22087;-85
2021/03/03 20:10:19;;;;;;;130.95;54.95;;;;;;;4.59;55.82;99645.03;4168709;83;21571;-85
2021/03/03 20:16:27;;;;;;;112.50;48.80;;;;;;;4.66;56.24;99633.16;4193999;83;21232;-87
2021/03/03 20:22:29;;;;;;;131.85;56.53;;;;;;;4.68;56.94;99635.55;4197889;83;21217;-86
2021/03/03 20:28:30;;;;;;;122.45;53.78;;;;;;;4.60;56.69;99627.64;4190667;83;21223;-88
2021/03/03 20:34:32;;;;;;;130.20;56.68;;;;;;;4.44;56.64;99633.88;4198598;83;21351;-86
2021/03/03 20:40:33;;;;;;;137.92;60.65;;;;;;;4.29;57.20;99624.30;4204134;83;21351;-87
2021/03/03 20:46:36;;;;;;;134.63;59.80;;;;;;;4.33;57.13;99623.92;4195240;83;21258;-86
2021/03/03 20:52:38;;;;;;;138.70;59.90;;;;;;;4.29;58.02;99614.03;4193190;83;21225;-85
2021/03/03 20:58:40;;;;;;;130.12;55.78;;;;;;;4.30;58.51;99616.42;4195520;83;21236;-87
2021/03/03 21:04:42;;;;;;;117.37;51.77;;;;;;;4.25;59.14;99622.00;4199843;83;21780;-86
2021/03/03 21:10:43;;;;;;;133.43;56.42;;;;;;;4.17;58.23;99616.56;4199394;83;21234;-86
2021/03/03 21:16:45;;;;;;;127.62;55.33;;;;;;;3.96;59.37;99622.36;4101787;85;21641;-86
2021/03/03 21:22:47;;;;;;;139.85;59.33;;;;;;;3.88;60.15;99608.25;4172827;83;21569;-86
2021/03/03 21:28:48;;;;;;;160.03;67.12;;;;;;;3.89;60.29;99603.05;4174498;83;21193;-86
2021/03/03 21:34:50;;;;;;;128.60;56.02;;;;;;;3.94;60.22;99598.30;4175860;83;21233;-85
2021/03/03 21:40:52;;;;;;;124.27;54.65;;;;;;;3.84;60.65;99586.95;4173751;83;22590;-85
2021/03/03 21:46:54;;;;;;;134.80;57.58;;;;;;;3.80;61.58;99580.58;4177752;83;21776;-85
2021/03/03 21:52:56;;;;;;;230.77;101.80;;;;;;;3.86;62.06;99576.61;4181703;83;21961;-86
2021/03/03 21:58:57;;;;;;;222.70;98.37;;;;;;;3.50;63.18;99568.73;4168982;83;21188;-86
2021/03/03 22:04:59;;;;;;;228.70;98.33;;;;;;;3.39;62.26;99553.09;4174142;83;21363;-86
2021/03/03 22:11:00;;;;;;;144.77;65.40;;;;;;;3.40;62.82;99551.42;4167578;83;21187;-88
2021/03/03 22:17:03;;;;;;;176.37;81.80;;;;;;;3.55;63.01;99552.91;4197557;83;21217;-86
2021/03/03 22:23:05;;;;;;;235.53;104.10;;;;;;;3.49;63.66;99544.69;4214301;83;21221;-87
2021/03/03 22:29:06;;;;;;;232.18;104.25;;;;;;;3.20;63.34;99529.00;4126445;84;22465;-86
2021/03/03 22:35:09;;;;;;;261.80;114.47;;;;;;;3.14;64.03;99526.20;4133934;84;21705;-85
2021/03/03 22:41:11;;;;;;;298.32;122.67;;;;;;;3.18;63.99;99533.38;4132563;84;21344;-85
2021/03/03 22:47:12;;;;;;;331.77;127.80;;;;;;;3.20;64.68;99533.06;4123882;85;21248;-86
2021/03/03 22:53:14;;;;;;;298.50;117.53;;;;;;;3.17;64.72;99527.73;4124302;84;21621;-85
2021/03/03 22:59:15;;;;;;;274.92;107.67;;;;;;;3.27;64.35;99519.08;4128554;85;21698;-86
2021/03/03 23:05:17;;;;;;;259.37;105.22;;;;;;;3.29;65.04;99519.00;4124211;84;21217;-88
2021/03/03 23:11:20;;;;;;;206.95;90.65;;;;;;;3.42;66.46;99513.22;4068623;85;21237;-86
2021/03/03 23:17:21;;;;;;;198.72;81.95;;;;;;;3.53;68.87;99506.39;4176796;84;21207;-86
2021/03/03 23:23:27;;;;;;;210.55;83.70;;;;;;;3.57;67.93;99508.73;4179431;84;21399;-86
2021/03/03 23:29:29;;;;;;;222.37;86.92;;;;;;;3.69;67.81;99503.48;4179545;84;21251;-86
2021/03/03 23:35:30;;;;;;;224.65;90.90;;;;;;;3.83;68.42;99514.95;4174897;84;21255;-86
2021/03/03 23:41:32;;;;;;;182.57;81.70;;;;;;;3.94;67.90;99510.27;4178255;84;21389;-87
2021/03/03 23:47:34;;;;;;;168.15;70.62;;;;;;;3.98;68.69;99503.63;4176524;84;21707;-86
2021/03/03 23:53:36;;;;;;;158.65;69.97;;;;;;;3.85;68.32;99491.88;4179866;84;21207;-86
2021/03/03 23:59:37;;;;;;;158.72;67.47;;;;;;;3.72;69.91;99491.46;4180102;84;21223;-85
